CheckWX is a tool to help pilots better visualize weather data.  It is not intended as a substitute for an official pre-flight weather briefing.

15:23:12 UTC

KLFK METAR
Angelina County Airport
Lufkin, Texas, USA
Current

30 mins ago

KLFK 261453Z AUTO VRB06KT 10SM BKN022 BKN029 26/21 A3012 RMK AO2 SLP195 T02610211 51004
Observed
May-26 @ 14:53 UTC
Wind
  • Variable at 6 KTS
Visibility
10 SM
Flight Rules
MVFR
Cloud Levels
  • Broken at 2,200' AGL
  • Broken at 2,900' AGL
Temperature
26°C / 79°F
Dewpoint
21°C / 70°F
Humidity
74%
Altimeter
30.12" Hg
Pressure
1020.02 hPa
Previous

2 hours ago

KLFK 261353Z AUTO 18004KT 10SM CLR 24/21 A3012 RMK AO2 SLP194 T02440211
Observed
May-26 @ 13:53 UTC
Wind
  • 180° at 4 KTS
Visibility
10 SM
Flight Rules
VFR
Cloud Levels
  • Clear skies
Temperature
24°C / 75°F
Dewpoint
21°C / 70°F
Humidity
83%
Altimeter
30.12" Hg
Pressure
1020.02 hPa
Previous

3 hours ago

KLFK 261253Z AUTO 14003KT 10SM CLR 23/21 A3011 RMK AO2 SLP190 T02280211
Observed
May-26 @ 12:53 UTC
Wind
  • 140° at 3 KTS
Visibility
10 SM
Flight Rules
VFR
Cloud Levels
  • Clear skies
Temperature
23°C / 73°F
Dewpoint
21°C / 70°F
Humidity
89%
Altimeter
30.11" Hg
Pressure
1019.62 hPa